Time;durP1;ratioP1;P1;durP2;ratioP2;P2;SDS_P1;SDS_P2;PMS_P1;PMS_P2;Temp;Humidity;BMP_temperature;BMP_pressure;BME280_temperature;BME280_humidity;BME280_pressure;Samples;Min_cycle;Max_cycle;Signal;HPM_P1;HPM_P2
2021/06/15 00:02:54;;;;;;;24.60;12.45;;;;;;;;;;10196095;28;20066;-67
2021/06/15 00:07:51;;;;;;;25.27;13.05;;;;;;;;;;10199715;28;20084;-67
2021/06/15 00:12:48;;;;;;;20.80;10.90;;;;;;;;;;10178341;28;20841;-67
2021/06/15 00:17:44;;;;;;;23.42;10.85;;;;;;;;;;10197988;28;20033;-67
2021/06/15 00:22:41;;;;;;;18.42;9.73;;;;;;;;;;10190370;28;20073;-69
2021/06/15 00:27:38;;;;;;;17.60;9.93;;;;;;;;;;10196922;28;20658;-68
2021/06/15 00:32:34;;;;;;;22.52;10.95;;;;;;;;;;10201321;28;20046;-68
2021/06/15 00:37:30;;;;;;;21.45;9.27;;;;;;;;;;10194167;28;20077;-66
2021/06/15 00:42:27;;;;;;;16.70;9.30;;;;;;;;;;10185687;28;20448;-67
2021/06/15 00:47:23;;;;;;;21.95;10.25;;;;;;;;;;10199429;28;20065;-70
2021/06/15 00:52:20;;;;;;;18.63;9.52;;;;;;;;;;10191642;28;20183;-69
2021/06/15 00:57:17;;;;;;;18.73;9.68;;;;;;;;;;10196184;28;20081;-69
2021/06/15 01:02:14;;;;;;;20.65;10.63;;;;;;;;;;10184376;28;20684;-69
2021/06/15 01:07:14;;;;;;;19.35;9.13;;;;;;;;;;10198988;28;20053;-68
2021/06/15 01:12:34;;;;;;;23.65;10.55;;;;;;;;;;10198949;28;20053;-68
2021/06/15 01:17:30;;;;;;;18.88;9.57;;;;;;;;;;10199438;28;20045;-69
2021/06/15 01:22:46;;;;;;;20.98;8.70;;;;;;;;;;10192327;28;20145;-69
2021/06/15 01:27:54;;;;;;;19.10;8.63;;;;;;;;;;10208327;28;20096;-69
2021/06/15 01:32:58;;;;;;;17.65;8.40;;;;;;;;;;10192738;28;20156;-68
2021/06/15 01:38:09;;;;;;;16.48;8.15;;;;;;;;;;10195493;28;20141;-70
2021/06/15 01:43:07;;;;;;;18.73;7.75;;;;;;;;;;10196487;28;20526;-70
2021/06/15 01:48:13;;;;;;;18.38;7.50;;;;;;;;;;10186767;28;20440;-70
2021/06/15 01:53:12;;;;;;;15.93;9.05;;;;;;;;;;10194888;28;20046;-70
2021/06/15 01:58:08;;;;;;;26.20;9.85;;;;;;;;;;10190403;28;20100;-70
2021/06/15 02:03:05;;;;;;;18.20;9.07;;;;;;;;;;10185798;28;20141;-70
2021/06/15 02:08:03;;;;;;;14.55;7.55;;;;;;;;;;10202619;28;20137;-68
2021/06/15 02:13:00;;;;;;;18.70;7.70;;;;;;;;;;10202581;28;20100;-68
2021/06/15 02:17:57;;;;;;;26.55;7.63;;;;;;;;;;10206315;28;20042;-67
2021/06/15 02:22:55;;;;;;;16.30;6.78;;;;;;;;;;10203194;28;20077;-68
2021/06/15 02:27:52;;;;;;;16.90;7.05;;;;;;;;;;10197986;28;20073;-67
2021/06/15 02:32:49;;;;;;;15.73;5.75;;;;;;;;;;10189998;28;20081;-70
2021/06/15 02:37:51;;;;;;;14.57;6.10;;;;;;;;;;10199912;28;20563;-68
2021/06/15 02:42:48;;;;;;;15.57;6.13;;;;;;;;;;10186796;28;20050;-70
2021/06/15 02:47:46;;;;;;;14.40;4.47;;;;;;;;;;10201021;28;20482;-68
2021/06/15 02:52:44;;;;;;;24.40;5.15;;;;;;;;;;10197862;28;20156;-66
2021/06/15 02:57:41;;;;;;;20.65;5.30;;;;;;;;;;10182900;28;20049;-67
2021/06/15 03:02:37;;;;;;;15.23;4.72;;;;;;;;;;10193527;28;20038;-67
2021/06/15 03:07:34;;;;;;;11.65;3.88;;;;;;;;;;10186242;28;20132;-66
2021/06/15 03:12:33;;;;;;;16.73;4.68;;;;;;;;;;10202833;28;20136;-66
2021/06/15 03:17:31;;;;;;;18.27;4.35;;;;;;;;;;10208872;28;20042;-66
2021/06/15 03:22:33;;;;;;;17.83;3.97;;;;;;;;;;10190065;28;20134;-66
2021/06/15 03:27:32;;;;;;;14.30;3.00;;;;;;;;;;10185267;28;20134;-68
2021/06/15 03:32:29;;;;;;;16.17;3.28;;;;;;;;;;10181877;28;20526;-67
2021/06/15 03:37:27;;;;;;;17.65;3.63;;;;;;;;;;10188585;28;20137;-66
2021/06/15 03:42:25;;;;;;;8.63;2.35;;;;;;;;;;10185370;28;20129;-67
2021/06/15 03:47:23;;;;;;;12.38;2.97;;;;;;;;;;10182349;28;20039;-66
2021/06/15 03:52:22;;;;;;;9.18;2.85;;;;;;;;;;10198306;28;20053;-66
2021/06/15 03:57:19;;;;;;;12.30;3.20;;;;;;;;;;10178834;28;20129;-69
2021/06/15 04:02:15;;;;;;;11.95;3.75;;;;;;;;;;10195533;28;20077;-66
2021/06/15 04:07:14;;;;;;;15.73;3.80;;;;;;;;;;10192332;28;20050;-66
2021/06/15 04:12:12;;;;;;;10.25;2.85;;;;;;;;;;10198000;28;20045;-68
2021/06/15 04:17:10;;;;;;;14.48;2.97;;;;;;;;;;10200227;28;20073;-67
2021/06/15 04:22:09;;;;;;;11.27;2.88;;;;;;;;;;10199670;28;20077;-68
2021/06/15 04:27:06;;;;;;;12.13;3.38;;;;;;;;;;10202886;28;20124;-68
2021/06/15 04:32:04;;;;;;;10.48;2.65;;;;;;;;;;10189991;28;20538;-68
2021/06/15 04:37:03;;;;;;;13.02;3.03;;;;;;;;;;10180116;28;20574;-67
2021/06/15 04:42:00;;;;;;;12.93;2.70;;;;;;;;;;10190853;28;20046;-66
2021/06/15 04:47:21;;;;;;;13.70;3.15;;;;;;;;;;10200676;28;20052;-66
2021/06/15 04:52:19;;;;;;;11.30;2.67;;;;;;;;;;10200009;28;20488;-66
2021/06/15 04:57:20;;;;;;;11.15;2.75;;;;;;;;;;10182081;28;20499;-65
2021/06/15 05:02:21;;;;;;;11.98;2.70;;;;;;;;;;10185621;28;20054;-66
2021/06/15 05:07:20;;;;;;;16.17;3.03;;;;;;;;;;10185511;28;20080;-66
2021/06/15 05:12:21;;;;;;;9.63;2.22;;;;;;;;;;10186129;28;20141;-66
2021/06/15 05:17:21;;;;;;;16.52;3.78;;;;;;;;;;10181259;28;20416;-67
2021/06/15 05:22:25;;;;;;;10.65;2.50;;;;;;;;;;10193412;28;20050;-67
2021/06/15 05:27:21;;;;;;;;;;;;;;;;;;10210888;28;20088;-67
2021/06/15 05:32:18;;;;;;;16.50;2.42;;;;;;;;;;10191942;28;19983;-67
2021/06/15 05:37:14;;;;;;;6.78;2.05;;;;;;;;;;10184731;28;20076;-67
2021/06/15 05:42:14;;;;;;;8.27;1.70;;;;;;;;;;10186944;28;20049;-67
2021/06/15 05:47:10;;;;;;;11.52;2.75;;;;;;;;;;10187173;28;20061;-68
2021/06/15 05:52:08;;;;;;;8.57;1.85;;;;;;;;;;10189599;28;20046;-68
2021/06/15 05:57:05;;;;;;;11.68;1.75;;;;;;;;;;10187725;28;20141;-68
2021/06/15 06:02:01;;;;;;;6.20;1.58;;;;;;;;;;10185959;28;20499;-68
2021/06/15 06:12:13;;;;;;;9.68;1.83;;;;;;;;;;10193264;28;20096;-68
2021/06/15 06:17:09;;;;;;;8.63;2.20;;;;;;;;;;10188765;28;20049;-69
2021/06/15 06:22:06;;;;;;;11.50;2.63;;;;;;;;;;10185829;28;20128;-68
2021/06/15 06:27:02;;;;;;;12.35;2.05;;;;;;;;;;10190187;28;20045;-67
2021/06/15 06:31:58;;;;;;;8.25;1.60;;;;;;;;;;10184218;28;20468;-68
2021/06/15 06:36:55;;;;;;;8.32;1.40;;;;;;;;;;10196416;28;20065;-67
2021/06/15 06:41:51;;;;;;;10.95;2.35;;;;;;;;;;10190481;28;20053;-68
2021/06/15 06:46:48;;;;;;;12.25;2.17;;;;;;;;;;10186985;28;20429;-67
2021/06/15 06:51:44;;;;;;;11.73;2.28;;;;;;;;;;10193128;28;20099;-67
2021/06/15 06:56:41;;;;;;;13.20;1.45;;;;;;;;;;10183099;28;20054;-68
2021/06/15 07:01:37;;;;;;;11.80;2.30;;;;;;;;;;10180360;28;20127;-67
2021/06/15 07:06:33;;;;;;;12.27;1.73;;;;;;;;;;10181932;28;20042;-66
2021/06/15 07:11:30;;;;;;;7.93;1.30;;;;;;;;;;10179673;28;20614;-66
2021/06/15 07:16:26;;;;;;;12.68;2.13;;;;;;;;;;10180903;28;20065;-67
2021/06/15 07:21:22;;;;;;;10.32;1.58;;;;;;;;;;10184090;28;20668;-66
2021/06/15 07:26:21;;;;;;;9.05;1.70;;;;;;;;;;10180120;28;20137;-66
2021/06/15 07:31:17;;;;;;;9.65;1.85;;;;;;;;;;10199114;28;20073;-66
2021/06/15 07:36:14;;;;;;;8.68;1.83;;;;;;;;;;10183970;28;20038;-66
2021/06/15 07:41:10;;;;;;;10.25;1.95;;;;;;;;;;10183530;28;20061;-66
2021/06/15 07:46:06;;;;;;;12.82;1.88;;;;;;;;;;10181957;28;20567;-67
2021/06/15 07:51:03;;;;;;;12.43;2.38;;;;;;;;;;10194232;28;20041;-68
2021/06/15 07:55:59;;;;;;;8.13;1.30;;;;;;;;;;10196653;28;20085;-67
2021/06/15 08:00:56;;;;;;;9.45;1.30;;;;;;;;;;10194263;28;20053;-68
2021/06/15 08:05:52;;;;;;;7.45;1.30;;;;;;;;;;10191755;28;20053;-68
2021/06/15 08:10:49;;;;;;;18.13;3.78;;;;;;;;;;10203632;28;20137;-69
2021/06/15 08:15:48;;;;;;;8.68;2.08;;;;;;;;;;10196183;28;20046;-68
2021/06/15 08:20:46;;;;;;;11.27;1.42;;;;;;;;;;10202926;28;20076;-68
2021/06/15 08:25:44;;;;;;;10.20;2.33;;;;;;;;;;10205718;28;20124;-69
2021/06/15 08:30:40;;;;;;;8.48;1.55;;;;;;;;;;10191699;28;20515;-68
2021/06/15 08:35:37;;;;;;;7.47;1.42;;;;;;;;;;10193821;28;20092;-68
2021/06/15 08:40:33;;;;;;;7.90;2.80;;;;;;;;;;10191007;28;20092;-69
2021/06/15 08:45:30;;;;;;;8.43;1.40;;;;;;;;;;10194304;28;20042;-67
2021/06/15 08:50:27;;;;;;;6.03;1.15;;;;;;;;;;10197359;28;20474;-68
2021/06/15 08:55:31;;;;;;;8.13;1.77;;;;;;;;;;10187456;28;20101;-68
2021/06/15 09:00:27;;;;;;;7.25;1.40;;;;;;;;;;10203477;28;20116;-68
2021/06/15 09:05:24;;;;;;;9.27;1.67;;;;;;;;;;10188983;28;20096;-68
2021/06/15 09:10:27;;;;;;;10.20;1.65;;;;;;;;;;10202502;28;20080;-68
2021/06/15 09:15:23;;;;;;;7.53;1.40;;;;;;;;;;10186549;28;20046;-68
2021/06/15 09:20:21;;;;;;;6.40;1.25;;;;;;;;;;10188587;28;20046;-67
2021/06/15 09:25:18;;;;;;;8.20;1.27;;;;;;;;;;10184273;28;20078;-67
2021/06/15 09:30:15;;;;;;;11.35;1.50;;;;;;;;;;10184028;28;20081;-67
2021/06/15 09:35:12;;;;;;;5.90;1.35;;;;;;;;;;10186360;28;20141;-66
2021/06/15 09:40:10;;;;;;;8.13;1.63;;;;;;;;;;10187679;28;20125;-66
2021/06/15 09:45:26;;;;;;;8.38;1.45;;;;;;;;;;10192142;28;20050;-66
2021/06/15 09:50:23;;;;;;;7.38;1.27;;;;;;;;;;10181817;28;20200;-66
2021/06/15 09:55:21;;;;;;;6.07;1.38;;;;;;;;;;10191819;28;20088;-66
2021/06/15 10:00:17;;;;;;;7.47;1.15;;;;;;;;;;10191420;28;20042;-67
2021/06/15 10:05:21;;;;;;;10.32;2.08;;;;;;;;;;10190643;28;20755;-66
2021/06/15 10:10:19;;;;;;;7.15;2.10;;;;;;;;;;10193319;28;20050;-66
2021/06/15 10:15:15;;;;;;;8.75;1.65;;;;;;;;;;10195064;28;20096;-66
2021/06/15 10:20:22;;;;;;;5.97;1.35;;;;;;;;;;10192706;28;20037;-66
2021/06/15 10:25:20;;;;;;;7.53;1.38;;;;;;;;;;10195030;28;20092;-66
2021/06/15 10:30:18;;;;;;;8.10;1.63;;;;;;;;;;10188931;28;20101;-66
2021/06/15 10:35:29;;;;;;;7.50;1.52;;;;;;;;;;10185278;28;20054;-66
2021/06/15 10:40:26;;;;;;;6.75;1.23;;;;;;;;;;10185612;28;20076;-67
2021/06/15 10:45:26;;;;;;;5.55;1.27;;;;;;;;;;10181034;28;20569;-67
2021/06/15 10:50:42;;;;;;;5.43;1.35;;;;;;;;;;10188742;28;20069;-68
2021/06/15 10:55:38;;;;;;;4.95;1.52;;;;;;;;;;10183721;28;20080;-67
2021/06/15 11:00:45;;;;;;;5.50;1.13;;;;;;;;;;10190420;28;20057;-69
2021/06/15 11:05:43;;;;;;;5.78;1.00;;;;;;;;;;10198438;28;20037;-68
2021/06/15 11:10:44;;;;;;;5.63;1.80;;;;;;;;;;10198059;28;20076;-68
2021/06/15 11:15:59;;;;;;;5.93;1.40;;;;;;;;;;10188481;28;20053;-70
2021/06/15 11:20:56;;;;;;;8.13;1.27;;;;;;;;;;10193957;28;20092;-68
2021/06/15 11:26:12;;;;;;;7.97;1.60;;;;;;;;;;10190371;28;20042;-67
2021/06/15 11:31:34;;;;;;;5.53;1.02;;;;;;;;;;10186444;28;20096;-67
2021/06/15 11:36:38;;;;;;;9.32;1.90;;;;;;;;;;10193894;28;20049;-68
2021/06/15 11:42:00;;;;;;;8.02;1.52;;;;;;;;;;10183795;28;20389;-68
2021/06/15 11:47:26;;;;;;;7.95;1.20;;;;;;;;;;10175717;28;20045;-67
2021/06/15 11:52:23;;;;;;;6.88;1.23;;;;;;;;;;10176508;28;20503;-67
2021/06/15 11:57:19;;;;;;;7.47;1.38;;;;;;;;;;10184411;28;20058;-67
2021/06/15 12:02:21;;;;;;;7.75;1.95;;;;;;;;;;10187131;28;20041;-67
2021/06/15 12:07:18;;;;;;;10.53;2.33;;;;;;;;;;10185603;28;20133;-67
2021/06/15 12:12:14;;;;;;;9.25;1.50;;;;;;;;;;10187982;28;20080;-67
2021/06/15 12:17:10;;;;;;;6.35;1.52;;;;;;;;;;10187081;28;20503;-68
2021/06/15 12:22:14;;;;;;;7.15;1.83;;;;;;;;;;10190112;28;20697;-68
2021/06/15 12:27:20;;;;;;;6.82;1.48;;;;;;;;;;10198430;28;20252;-68
2021/06/15 12:32:16;;;;;;;9.35;1.70;;;;;;;;;;10183347;28;20045;-67
2021/06/15 12:37:13;;;;;;;12.88;1.88;;;;;;;;;;10190268;28;20104;-67
2021/06/15 12:42:13;;;;;;;6.90;1.08;;;;;;;;;;10191147;28;20470;-67
2021/06/15 12:47:11;;;;;;;5.28;1.55;;;;;;;;;;10187996;28;20492;-67
2021/06/15 12:52:12;;;;;;;7.05;1.58;;;;;;;;;;10186223;28;20041;-67
2021/06/15 12:57:18;;;;;;;8.98;1.52;;;;;;;;;;10188933;28;20082;-67
2021/06/15 13:02:15;;;;;;;7.38;1.67;;;;;;;;;;10188104;28;20084;-67
2021/06/15 13:07:12;;;;;;;7.82;1.65;;;;;;;;;;10193588;28;20050;-67
2021/06/15 13:12:10;;;;;;;7.20;1.35;;;;;;;;;;10196391;28;20042;-67
2021/06/15 13:17:11;;;;;;;6.70;1.50;;;;;;;;;;10185712;28;20141;-67
2021/06/15 13:22:08;;;;;;;7.03;1.40;;;;;;;;;;10196323;28;20150;-68
2021/06/15 13:27:18;;;;;;;5.40;1.55;;;;;;;;;;10192124;28;20088;-69
2021/06/15 13:32:18;;;;;;;7.63;1.38;;;;;;;;;;10187556;28;20126;-68
2021/06/15 13:37:14;;;;;;;4.63;0.77;;;;;;;;;;10189875;28;20081;-68
2021/06/15 13:42:10;;;;;;;5.10;1.13;;;;;;;;;;10192945;28;20069;-69
2021/06/15 13:47:07;;;;;;;4.57;0.85;;;;;;;;;;10196083;28;20053;-68
2021/06/15 13:52:05;;;;;;;5.43;0.90;;;;;;;;;;10193125;28;20794;-68
2021/06/15 13:57:02;;;;;;;3.97;1.15;;;;;;;;;;10195023;28;20495;-68
2021/06/15 14:01:58;;;;;;;5.72;1.23;;;;;;;;;;10197641;28;20053;-68
2021/06/15 14:06:54;;;;;;;6.03;1.00;;;;;;;;;;10195661;28;20118;-69
2021/06/15 14:11:51;;;;;;;7.00;1.50;;;;;;;;;;10200847;28;20485;-69
2021/06/15 14:16:47;;;;;;;5.57;1.05;;;;;;;;;;10200201;28;20068;-69
2021/06/15 14:21:44;;;;;;;6.55;1.25;;;;;;;;;;10200102;28;20148;-69
2021/06/15 14:26:40;;;;;;;6.90;1.20;;;;;;;;;;10192581;28;20053;-68
2021/06/15 14:31:37;;;;;;;6.82;1.20;;;;;;;;;;10195976;28;20145;-69
2021/06/15 14:36:33;;;;;;;6.78;1.13;;;;;;;;;;10185571;28;20069;-69
2021/06/15 14:41:29;;;;;;;6.45;1.20;;;;;;;;;;10195216;28;20080;-69
2021/06/15 14:46:26;;;;;;;5.13;1.30;;;;;;;;;;10183960;28;20058;-70
2021/06/15 14:51:22;;;;;;;7.72;1.45;;;;;;;;;;10190227;28;20103;-69
2021/06/15 14:56:22;;;;;;;6.72;1.20;;;;;;;;;;10186466;28;20088;-68
2021/06/15 15:01:18;;;;;;;9.05;1.52;;;;;;;;;;10193730;28;20156;-68
2021/06/15 15:06:15;;;;;;;7.55;1.20;;;;;;;;;;10189552;28;20042;-69
2021/06/15 15:11:19;;;;;;;5.95;1.38;;;;;;;;;;10194873;28;20104;-68
2021/06/15 15:16:16;;;;;;;5.95;1.30;;;;;;;;;;10185731;28;20104;-69
2021/06/15 15:21:13;;;;;;;5.68;1.23;;;;;;;;;;10188174;28;20084;-69
2021/06/15 15:26:13;;;;;;;9.82;1.50;;;;;;;;;;10189278;28;20463;-68
2021/06/15 15:31:09;;;;;;;6.30;1.67;;;;;;;;;;10192523;28;20468;-68
2021/06/15 15:36:07;;;;;;;8.80;1.50;;;;;;;;;;10184128;28;20129;-69
2021/06/15 15:41:04;;;;;;;7.30;1.35;;;;;;;;;;10188953;28;20070;-68
2021/06/15 15:46:02;;;;;;;7.63;1.95;;;;;;;;;;10194918;28;20053;-70
2021/06/15 15:51:00;;;;;;;7.25;1.50;;;;;;;;;;10186532;28;20124;-69
2021/06/15 15:55:56;;;;;;;12.40;2.20;;;;;;;;;;10170678;28;20141;-68
2021/06/15 16:00:52;;;;;;;7.05;1.20;;;;;;;;;;10175949;28;20073;-68
2021/06/15 16:05:49;;;;;;;10.40;1.52;;;;;;;;;;10196699;28;20145;-69
2021/06/15 16:10:45;;;;;;;8.52;1.83;;;;;;;;;;10205648;28;20048;-68
2021/06/15 16:15:42;;;;;;;10.43;1.52;;;;;;;;;;10208700;28;20132;-69
2021/06/15 16:20:39;;;;;;;8.45;1.92;;;;;;;;;;10205655;28;20041;-69
2021/06/15 16:25:37;;;;;;;7.05;1.38;;;;;;;;;;10207702;28;20072;-68
2021/06/15 16:30:33;;;;;;;7.85;1.45;;;;;;;;;;10203006;28;20137;-69
2021/06/15 16:35:29;;;;;;;7.88;2.22;;;;;;;;;;10193822;28;20570;-69
2021/06/15 16:40:29;;;;;;;7.78;1.60;;;;;;;;;;10194807;28;20109;-68
2021/06/15 16:45:25;;;;;;;5.90;1.25;;;;;;;;;;10188818;28;20042;-69
2021/06/15 16:50:23;;;;;;;12.90;2.80;;;;;;;;;;10195102;28;20107;-70
2021/06/15 16:55:20;;;;;;;8.40;1.92;;;;;;;;;;10185392;28;20100;-68
2021/06/15 17:00:17;;;;;;;6.60;1.92;;;;;;;;;;10181140;28;20073;-69
2021/06/15 17:05:14;;;;;;;12.00;2.17;;;;;;;;;;10187411;28;20133;-70
2021/06/15 17:10:20;;;;;;;5.70;1.25;;;;;;;;;;10181333;28;20504;-68
2021/06/15 17:15:18;;;;;;;10.95;1.98;;;;;;;;;;10183613;28;20715;-69
2021/06/15 17:20:15;;;;;;;4.18;1.20;;;;;;;;;;10180326;28;20164;-68
2021/06/15 17:25:13;;;;;;;9.63;1.85;;;;;;;;;;10183421;28;20543;-69
2021/06/15 17:30:11;;;;;;;13.43;2.72;;;;;;;;;;10178193;28;20582;-70
2021/06/15 17:35:09;;;;;;;6.07;1.38;;;;;;;;;;10183304;28;20096;-68
2021/06/15 17:40:11;;;;;;;7.13;1.50;;;;;;;;;;10181569;28;20049;-69
2021/06/15 17:45:09;;;;;;;9.88;1.60;;;;;;;;;;10181774;28;20384;-69
2021/06/15 17:50:06;;;;;;;8.35;1.23;;;;;;;;;;10186546;28;20053;-69
2021/06/15 17:55:09;;;;;;;8.93;3.13;;;;;;;;;;10169289;28;20086;-69
2021/06/15 18:00:08;;;;;;;5.15;1.40;;;;;;;;;;10181065;28;20052;-69
2021/06/15 18:05:10;;;;;;;9.35;2.20;;;;;;;;;;10182510;28;20078;-68
2021/06/15 18:10:07;;;;;;;8.73;2.17;;;;;;;;;;10185915;28;20135;-69
2021/06/15 18:15:04;;;;;;;8.57;2.88;;;;;;;;;;10180689;28;20112;-68
2021/06/15 18:20:01;;;;;;;5.75;1.42;;;;;;;;;;10181275;28;20081;-68
2021/06/15 18:24:57;;;;;;;6.47;1.23;;;;;;;;;;10186359;28;20555;-68
2021/06/15 18:29:54;;;;;;;7.22;1.95;;;;;;;;;;10167813;28;20088;-68
2021/06/15 18:34:50;;;;;;;6.60;1.40;;;;;;;;;;10169750;28;20161;-68
2021/06/15 18:39:46;;;;;;;17.55;8.35;;;;;;;;;;10173713;28;20439;-68
2021/06/15 18:44:43;;;;;;;7.10;2.20;;;;;;;;;;10167137;28;20052;-69
2021/06/15 18:49:40;;;;;;;7.45;1.65;;;;;;;;;;10173895;28;20053;-68
2021/06/15 18:54:36;;;;;;;4.75;1.05;;;;;;;;;;10174387;28;20143;-69
2021/06/15 18:59:32;;;;;;;7.95;1.58;;;;;;;;;;10171165;28;20054;-69
2021/06/15 19:04:29;;;;;;;9.65;1.67;;;;;;;;;;10176835;28;20115;-69
2021/06/15 19:09:25;;;;;;;8.68;1.60;;;;;;;;;;10175329;28;20143;-68
2021/06/15 19:14:21;;;;;;;7.30;1.20;;;;;;;;;;10172478;28;20466;-68
2021/06/15 19:19:18;;;;;;;6.57;1.45;;;;;;;;;;10175065;28;20053;-69
2021/06/15 19:24:14;;;;;;;13.40;3.00;;;;;;;;;;10170696;28;20041;-69
2021/06/15 19:29:10;;;;;;;7.88;1.63;;;;;;;;;;10180199;28;20053;-68
2021/06/15 19:34:06;;;;;;;7.75;1.75;;;;;;;;;;10168245;28;20133;-69
2021/06/15 19:39:03;;;;;;;10.02;2.50;;;;;;;;;;10178388;28;20145;-69
2021/06/15 19:43:59;;;;;;;8.77;3.10;;;;;;;;;;10187302;28;20077;-69
2021/06/15 19:48:56;;;;;;;10.30;3.30;;;;;;;;;;10191281;28;20046;-69
2021/06/15 19:53:52;;;;;;;9.15;3.38;;;;;;;;;;10184070;28;20532;-69
2021/06/15 19:58:49;;;;;;;9.90;2.13;;;;;;;;;;10176119;28;20140;-68
2021/06/15 20:03:46;;;;;;;6.55;1.63;;;;;;;;;;10187434;28;20092;-67
2021/06/15 20:08:43;;;;;;;5.80;1.35;;;;;;;;;;10185266;28;20088;-69
2021/06/15 20:13:39;;;;;;;12.23;1.65;;;;;;;;;;10167939;28;20684;-68
2021/06/15 20:18:39;;;;;;;6.55;1.50;;;;;;;;;;10192006;28;20080;-68
2021/06/15 20:23:36;;;;;;;8.55;1.70;;;;;;;;;;10182974;28;20085;-69
2021/06/15 20:28:32;;;;;;;5.47;1.50;;;;;;;;;;10189318;28;20072;-68
2021/06/15 20:33:28;;;;;;;6.82;1.90;;;;;;;;;;10179874;28;20129;-68
2021/06/15 20:38:25;;;;;;;9.10;2.47;;;;;;;;;;10172159;28;20593;-67
2021/06/15 20:43:21;;;;;;;11.27;3.00;;;;;;;;;;10173168;28;20488;-70
2021/06/15 20:48:18;;;;;;;12.20;2.47;;;;;;;;;;10191592;28;20184;-68
2021/06/15 20:53:14;;;;;;;7.30;1.52;;;;;;;;;;10172191;28;20046;-68
2021/06/15 20:58:11;;;;;;;6.18;1.48;;;;;;;;;;10189036;28;20064;-68
2021/06/15 21:03:08;;;;;;;7.45;2.05;;;;;;;;;;10181851;28;20050;-68
2021/06/15 21:08:16;;;;;;;5.05;1.20;;;;;;;;;;10194681;28;20048;-68
2021/06/15 21:13:12;;;;;;;8.05;1.27;;;;;;;;;;10190070;28;20839;-67
2021/06/15 21:18:08;;;;;;;7.95;1.40;;;;;;;;;;10196398;28;20133;-67
2021/06/15 21:23:04;;;;;;;6.68;1.42;;;;;;;;;;10205101;28;20066;-67
2021/06/15 21:28:01;;;;;;;6.13;1.83;;;;;;;;;;10192108;28;20399;-68
2021/06/15 21:32:57;;;;;;;5.70;1.23;;;;;;;;;;10196829;28;20103;-69
2021/06/15 21:37:54;;;;;;;8.93;1.63;;;;;;;;;;10204440;28;20527;-68
2021/06/15 21:42:50;;;;;;;10.20;2.60;;;;;;;;;;10203497;28;20037;-68
2021/06/15 21:47:46;;;;;;;7.03;2.60;;;;;;;;;;10199364;28;20129;-68
2021/06/15 21:52:43;;;;;;;10.30;2.65;;;;;;;;;;10206648;28;20463;-69
2021/06/15 21:57:39;;;;;;;7.60;3.15;;;;;;;;;;10194157;28;21694;-68
2021/06/15 22:02:36;;;;;;;8.40;2.05;;;;;;;;;;10187375;28;20077;-67
2021/06/15 22:07:33;;;;;;;9.05;1.90;;;;;;;;;;10195038;28;20076;-67
2021/06/15 22:12:29;;;;;;;5.88;2.05;;;;;;;;;;10202875;28;20046;-69
2021/06/15 22:17:26;;;;;;;10.38;3.53;;;;;;;;;;10203758;28;20072;-69
2021/06/15 22:22:22;;;;;;;11.27;3.00;;;;;;;;;;10193528;28;20496;-69
2021/06/15 22:27:19;;;;;;;7.80;2.20;;;;;;;;;;10199513;28;20083;-68
2021/06/15 22:32:17;;;;;;;8.27;1.92;;;;;;;;;;10190696;28;20071;-68
2021/06/15 22:37:13;;;;;;;11.05;2.42;;;;;;;;;;10191404;28;20050;-70
2021/06/15 22:42:10;;;;;;;6.15;1.73;;;;;;;;;;10202938;28;20100;-67
2021/06/15 22:47:06;;;;;;;7.82;2.13;;;;;;;;;;10207912;28;20062;-67
2021/06/15 22:52:02;;;;;;;8.55;1.92;;;;;;;;;;10202454;28;20471;-67
2021/06/15 22:56:59;;;;;;;6.82;1.60;;;;;;;;;;10197939;28;20456;-67
2021/06/15 23:01:56;;;;;;;8.77;1.77;;;;;;;;;;10198861;28;20132;-67
2021/06/15 23:06:52;;;;;;;5.65;1.80;;;;;;;;;;10189517;28;20095;-67
2021/06/15 23:11:48;;;;;;;6.85;1.50;;;;;;;;;;10193358;28;20056;-67
2021/06/15 23:16:45;;;;;;;7.28;1.63;;;;;;;;;;10186796;28;20076;-67
2021/06/15 23:21:42;;;;;;;8.65;1.98;;;;;;;;;;10194013;28;20569;-68
2021/06/15 23:26:38;;;;;;;10.30;1.48;;;;;;;;;;10192291;28;20042;-69
2021/06/15 23:31:35;;;;;;;9.60;1.75;;;;;;;;;;10195951;28;20554;-69
2021/06/15 23:36:31;;;;;;;8.77;1.55;;;;;;;;;;10194635;28;20042;-69
2021/06/15 23:41:27;;;;;;;9.55;1.90;;;;;;;;;;10187693;28;20137;-68
2021/06/15 23:46:24;;;;;;;4.55;1.20;;;;;;;;;;10196059;28;20153;-69
2021/06/15 23:51:20;;;;;;;5.10;1.33;;;;;;;;;;10193212;28;20443;-69
2021/06/15 23:56:16;;;;;;;7.03;2.13;;;;;;;;;;10182356;28;20472;-68
